sensor_id;sensor_type;location;lat;lon;timestamp;temperature;humidity
11824;DHT22;5969;50.780;7.726;2023-03-01T00:01:02;-1.80;99.90
11824;DHT22;5969;50.780;7.726;2023-03-01T00:03:29;-1.80;99.90
11824;DHT22;5969;50.780;7.726;2023-03-01T00:05:57;-1.80;99.90
11824;DHT22;5969;50.780;7.726;2023-03-01T00:08:24;-2.10;99.90
11824;DHT22;5969;50.780;7.726;2023-03-01T00:11:01;-2.20;99.90
11824;DHT22;5969;50.780;7.726;2023-03-01T00:13:29;-2.10;99.90
11824;DHT22;5969;50.780;7.726;2023-03-01T00:15:56;-2.10;99.90
11824;DHT22;5969;50.780;7.726;2023-03-01T00:18:23;-2.00;99.90
11824;DHT22;5969;50.780;7.726;2023-03-01T00:20:50;-1.90;99.90
11824;DHT22;5969;50.780;7.726;2023-03-01T00:23:17;-2.00;99.90
11824;DHT22;5969;50.780;7.726;2023-03-01T00:25:44;-1.90;99.90
11824;DHT22;5969;50.780;7.726;2023-03-01T00:28:12;-2.00;99.90
11824;DHT22;5969;50.780;7.726;2023-03-01T00:30:39;-2.10;99.90
11824;DHT22;5969;50.780;7.726;2023-03-01T00:33:06;-2.30;99.90
11824;DHT22;5969;50.780;7.726;2023-03-01T00:35:33;-2.40;99.90
11824;DHT22;5969;50.780;7.726;2023-03-01T00:38:00;-2.50;99.90
11824;DHT22;5969;50.780;7.726;2023-03-01T00:40:28;-2.50;99.90
11824;DHT22;5969;50.780;7.726;2023-03-01T00:42:55;-2.60;99.90
11824;DHT22;5969;50.780;7.726;2023-03-01T00:45:24;-2.60;99.90
11824;DHT22;5969;50.780;7.726;2023-03-01T00:47:51;-2.60;99.90
11824;DHT22;5969;50.780;7.726;2023-03-01T00:50:18;-2.70;99.90
11824;DHT22;5969;50.780;7.726;2023-03-01T00:52:45;-2.70;99.90
11824;DHT22;5969;50.780;7.726;2023-03-01T00:55:12;-2.80;99.90
11824;DHT22;5969;50.780;7.726;2023-03-01T00:57:39;-3.00;99.90
11824;DHT22;5969;50.780;7.726;2023-03-01T01:00:07;-2.90;99.90
11824;DHT22;5969;50.780;7.726;2023-03-01T01:02:36;-2.90;99.90
11824;DHT22;5969;50.780;7.726;2023-03-01T01:05:04;-2.80;99.90
11824;DHT22;5969;50.780;7.726;2023-03-01T01:07:32;-2.80;99.90
11824;DHT22;5969;50.780;7.726;2023-03-01T01:09:59;-2.70;99.90
11824;DHT22;5969;50.780;7.726;2023-03-01T01:12:26;-2.60;99.90
11824;DHT22;5969;50.780;7.726;2023-03-01T01:14:53;-2.50;99.90
11824;DHT22;5969;50.780;7.726;2023-03-01T01:17:20;-2.50;99.90
11824;DHT22;5969;50.780;7.726;2023-03-01T01:19:48;-2.40;99.90
11824;DHT22;5969;50.780;7.726;2023-03-01T01:22:15;-2.40;99.90
11824;DHT22;5969;50.780;7.726;2023-03-01T01:24:41;-2.40;99.90
11824;DHT22;5969;50.780;7.726;2023-03-01T01:27:08;-2.40;99.90
11824;DHT22;5969;50.780;7.726;2023-03-01T01:29:35;-2.50;99.90
11824;DHT22;5969;50.780;7.726;2023-03-01T01:32:03;-2.50;99.90
11824;DHT22;5969;50.780;7.726;2023-03-01T01:34:30;-2.60;99.90
11824;DHT22;5969;50.780;7.726;2023-03-01T01:36:58;-2.60;99.90
11824;DHT22;5969;50.780;7.726;2023-03-01T01:39:28;-2.70;99.90
11824;DHT22;5969;50.780;7.726;2023-03-01T01:41:55;-2.70;99.90
11824;DHT22;5969;50.780;7.726;2023-03-01T01:44:23;-2.70;99.90
11824;DHT22;5969;50.780;7.726;2023-03-01T01:46:52;-2.70;99.90
11824;DHT22;5969;50.780;7.726;2023-03-01T01:49:27;-2.70;99.90
11824;DHT22;5969;50.780;7.726;2023-03-01T01:52:02;-2.70;99.90
11824;DHT22;5969;50.780;7.726;2023-03-01T01:54:37;-2.60;99.90
11824;DHT22;5969;50.780;7.726;2023-03-01T01:57:09;-2.60;99.90
11824;DHT22;5969;50.780;7.726;2023-03-01T01:59:38;-2.50;99.90
11824;DHT22;5969;50.780;7.726;2023-03-01T02:02:05;-2.50;99.90
11824;DHT22;5969;50.780;7.726;2023-03-01T02:04:33;-2.50;99.90
11824;DHT22;5969;50.780;7.726;2023-03-01T02:07:07;-2.50;99.90
11824;DHT22;5969;50.780;7.726;2023-03-01T02:09:35;-2.50;99.90
11824;DHT22;5969;50.780;7.726;2023-03-01T02:12:03;-2.50;99.90
11824;DHT22;5969;50.780;7.726;2023-03-01T02:14:31;-2.60;99.90
11824;DHT22;5969;50.780;7.726;2023-03-01T02:16:57;-2.50;99.90
11824;DHT22;5969;50.780;7.726;2023-03-01T02:19:34;-2.50;99.90
11824;DHT22;5969;50.780;7.726;2023-03-01T02:22:15;-2.60;99.90
11824;DHT22;5969;50.780;7.726;2023-03-01T02:24:54;-2.70;99.90
11824;DHT22;5969;50.780;7.726;2023-03-01T02:27:27;-2.70;99.90
11824;DHT22;5969;50.780;7.726;2023-03-01T02:29:59;-2.80;99.90
11824;DHT22;5969;50.780;7.726;2023-03-01T02:32:26;-2.80;99.90
11824;DHT22;5969;50.780;7.726;2023-03-01T02:34:53;-2.70;99.90
11824;DHT22;5969;50.780;7.726;2023-03-01T02:37:21;-2.70;99.90
11824;DHT22;5969;50.780;7.726;2023-03-01T02:39:55;-2.70;99.90
11824;DHT22;5969;50.780;7.726;2023-03-01T02:42:26;-2.70;99.90
11824;DHT22;5969;50.780;7.726;2023-03-01T02:44:55;-2.80;99.90
11824;DHT22;5969;50.780;7.726;2023-03-01T02:47:23;-2.80;99.90
11824;DHT22;5969;50.780;7.726;2023-03-01T02:49:49;-2.80;99.90
11824;DHT22;5969;50.780;7.726;2023-03-01T02:52:34;-2.80;99.90
11824;DHT22;5969;50.780;7.726;2023-03-01T02:55:07;-2.80;99.90
11824;DHT22;5969;50.780;7.726;2023-03-01T02:57:36;-2.80;99.90
11824;DHT22;5969;50.780;7.726;2023-03-01T03:00:07;-2.90;99.90
11824;DHT22;5969;50.780;7.726;2023-03-01T03:02:36;-2.90;99.90
11824;DHT22;5969;50.780;7.726;2023-03-01T03:05:06;-2.90;99.90
11824;DHT22;5969;50.780;7.726;2023-03-01T03:07:34;-2.80;99.90
11824;DHT22;5969;50.780;7.726;2023-03-01T03:10:02;-2.90;99.90
11824;DHT22;5969;50.780;7.726;2023-03-01T03:12:29;-3.10;99.90
11824;DHT22;5969;50.780;7.726;2023-03-01T03:14:56;-3.20;99.90
11824;DHT22;5969;50.780;7.726;2023-03-01T03:17:23;-3.20;99.90
11824;DHT22;5969;50.780;7.726;2023-03-01T03:19:51;-3.40;99.90
11824;DHT22;5969;50.780;7.726;2023-03-01T03:22:18;-3.40;99.90
11824;DHT22;5969;50.780;7.726;2023-03-01T03:24:44;-3.40;99.90
11824;DHT22;5969;50.780;7.726;2023-03-01T03:27:11;-3.20;99.90
11824;DHT22;5969;50.780;7.726;2023-03-01T03:29:38;-3.10;99.90
11824;DHT22;5969;50.780;7.726;2023-03-01T03:32:05;-3.00;99.90
11824;DHT22;5969;50.780;7.726;2023-03-01T03:34:32;-3.00;99.90
11824;DHT22;5969;50.780;7.726;2023-03-01T03:37:00;-3.10;99.90
11824;DHT22;5969;50.780;7.726;2023-03-01T03:39:28;-3.20;99.90
11824;DHT22;5969;50.780;7.726;2023-03-01T03:42:00;-3.10;99.90
11824;DHT22;5969;50.780;7.726;2023-03-01T03:44:27;-3.10;99.90
11824;DHT22;5969;50.780;7.726;2023-03-01T03:46:53;-3.10;99.90
11824;DHT22;5969;50.780;7.726;2023-03-01T03:49:20;-3.00;99.90
11824;DHT22;5969;50.780;7.726;2023-03-01T03:51:47;-3.00;99.90
11824;DHT22;5969;50.780;7.726;2023-03-01T03:54:15;-3.00;99.90
11824;DHT22;5969;50.780;7.726;2023-03-01T03:56:42;-3.00;99.90
11824;DHT22;5969;50.780;7.726;2023-03-01T03:59:09;-3.00;99.90
11824;DHT22;5969;50.780;7.726;2023-03-01T04:01:36;-3.00;99.90
11824;DHT22;5969;50.780;7.726;2023-03-01T04:04:03;-3.10;99.90
11824;DHT22;5969;50.780;7.726;2023-03-01T04:06:30;-3.10;99.90
11824;DHT22;5969;50.780;7.726;2023-03-01T04:08:57;-3.10;99.90
11824;DHT22;5969;50.780;7.726;2023-03-01T04:11:27;-3.10;99.90
11824;DHT22;5969;50.780;7.726;2023-03-01T04:13:57;-3.10;99.90
11824;DHT22;5969;50.780;7.726;2023-03-01T04:16:24;-3.10;99.90
11824;DHT22;5969;50.780;7.726;2023-03-01T04:18:51;-3.10;99.90
11824;DHT22;5969;50.780;7.726;2023-03-01T04:21:20;-3.10;99.90
11824;DHT22;5969;50.780;7.726;2023-03-01T04:23:47;-3.10;99.90
11824;DHT22;5969;50.780;7.726;2023-03-01T04:26:18;-3.00;99.90
11824;DHT22;5969;50.780;7.726;2023-03-01T04:28:46;-3.00;99.90
11824;DHT22;5969;50.780;7.726;2023-03-01T04:31:17;-3.10;99.90
11824;DHT22;5969;50.780;7.726;2023-03-01T04:33:47;-3.10;99.90
11824;DHT22;5969;50.780;7.726;2023-03-01T04:36:15;-3.10;99.90
11824;DHT22;5969;50.780;7.726;2023-03-01T04:38:42;-3.10;99.90
11824;DHT22;5969;50.780;7.726;2023-03-01T04:41:13;-3.10;99.90
11824;DHT22;5969;50.780;7.726;2023-03-01T04:43:40;-3.10;99.90
11824;DHT22;5969;50.780;7.726;2023-03-01T04:46:11;-3.10;99.90
11824;DHT22;5969;50.780;7.726;2023-03-01T04:48:39;-3.20;99.90
11824;DHT22;5969;50.780;7.726;2023-03-01T04:51:06;-3.20;99.90
11824;DHT22;5969;50.780;7.726;2023-03-01T04:53:34;-3.20;99.90
11824;DHT22;5969;50.780;7.726;2023-03-01T04:56:02;-3.20;99.90
11824;DHT22;5969;50.780;7.726;2023-03-01T04:58:29;-3.30;99.90
11824;DHT22;5969;50.780;7.726;2023-03-01T05:00:56;-3.30;99.90
11824;DHT22;5969;50.780;7.726;2023-03-01T05:03:24;-3.20;99.90
11824;DHT22;5969;50.780;7.726;2023-03-01T05:05:52;-3.30;99.90
11824;DHT22;5969;50.780;7.726;2023-03-01T05:08:19;-3.30;99.90
11824;DHT22;5969;50.780;7.726;2023-03-01T05:10:49;-3.30;99.90
11824;DHT22;5969;50.780;7.726;2023-03-01T05:13:16;-3.40;99.90
11824;DHT22;5969;50.780;7.726;2023-03-01T05:15:47;-3.40;99.90
11824;DHT22;5969;50.780;7.726;2023-03-01T05:18:14;-3.40;99.90
11824;DHT22;5969;50.780;7.726;2023-03-01T05:20:42;-3.50;99.90
11824;DHT22;5969;50.780;7.726;2023-03-01T05:23:10;-3.50;99.90
11824;DHT22;5969;50.780;7.726;2023-03-01T05:25:37;-3.60;99.90
11824;DHT22;5969;50.780;7.726;2023-03-01T05:28:09;-3.60;99.90
11824;DHT22;5969;50.780;7.726;2023-03-01T05:30:37;-3.70;99.90
11824;DHT22;5969;50.780;7.726;2023-03-01T05:33:05;-3.70;99.90
11824;DHT22;5969;50.780;7.726;2023-03-01T05:35:39;-3.70;99.90
11824;DHT22;5969;50.780;7.726;2023-03-01T05:38:07;-3.60;99.90
11824;DHT22;5969;50.780;7.726;2023-03-01T05:40:34;-3.70;99.90
11824;DHT22;5969;50.780;7.726;2023-03-01T05:43:01;-3.70;99.90
11824;DHT22;5969;50.780;7.726;2023-03-01T05:45:31;-3.70;99.90
11824;DHT22;5969;50.780;7.726;2023-03-01T05:47:59;-3.80;99.90
11824;DHT22;5969;50.780;7.726;2023-03-01T05:50:27;-4.00;99.90
11824;DHT22;5969;50.780;7.726;2023-03-01T05:52:58;-4.20;99.90
11824;DHT22;5969;50.780;7.726;2023-03-01T05:55:27;-4.20;99.90
11824;DHT22;5969;50.780;7.726;2023-03-01T05:57:55;-4.30;99.90
11824;DHT22;5969;50.780;7.726;2023-03-01T06:00:24;-4.40;99.90
11824;DHT22;5969;50.780;7.726;2023-03-01T06:02:51;-4.40;99.90
11824;DHT22;5969;50.780;7.726;2023-03-01T06:05:18;-4.30;99.90
11824;DHT22;5969;50.780;7.726;2023-03-01T06:07:44;-4.20;99.90
11824;DHT22;5969;50.780;7.726;2023-03-01T06:10:12;-4.20;99.90
11824;DHT22;5969;50.780;7.726;2023-03-01T06:12:41;-4.10;99.90
11824;DHT22;5969;50.780;7.726;2023-03-01T06:15:10;-4.20;99.90
11824;DHT22;5969;50.780;7.726;2023-03-01T06:17:39;-4.30;99.90
11824;DHT22;5969;50.780;7.726;2023-03-01T06:20:08;-4.30;99.90
11824;DHT22;5969;50.780;7.726;2023-03-01T06:22:36;-4.20;99.90
11824;DHT22;5969;50.780;7.726;2023-03-01T06:25:04;-4.20;99.90
11824;DHT22;5969;50.780;7.726;2023-03-01T06:27:31;-4.10;99.90
11824;DHT22;5969;50.780;7.726;2023-03-01T06:29:59;-4.10;99.90
11824;DHT22;5969;50.780;7.726;2023-03-01T06:32:26;-4.20;99.90
11824;DHT22;5969;50.780;7.726;2023-03-01T06:34:53;-4.30;99.90
11824;DHT22;5969;50.780;7.726;2023-03-01T06:37:20;-4.20;99.90
11824;DHT22;5969;50.780;7.726;2023-03-01T06:39:46;-4.20;99.90
11824;DHT22;5969;50.780;7.726;2023-03-01T06:42:14;-4.30;99.90
11824;DHT22;5969;50.780;7.726;2023-03-01T06:44:42;-4.40;99.90
11824;DHT22;5969;50.780;7.726;2023-03-01T06:47:10;-4.50;99.90
11824;DHT22;5969;50.780;7.726;2023-03-01T06:49:37;-4.40;99.90
11824;DHT22;5969;50.780;7.726;2023-03-01T06:52:04;-4.30;99.90
11824;DHT22;5969;50.780;7.726;2023-03-01T06:54:30;-4.20;99.90
11824;DHT22;5969;50.780;7.726;2023-03-01T06:56:57;-4.00;99.90
11824;DHT22;5969;50.780;7.726;2023-03-01T06:59:24;-3.90;99.90
11824;DHT22;5969;50.780;7.726;2023-03-01T07:01:51;-3.80;99.90
11824;DHT22;5969;50.780;7.726;2023-03-01T07:04:19;-3.70;99.90
11824;DHT22;5969;50.780;7.726;2023-03-01T07:06:45;-3.70;99.90
11824;DHT22;5969;50.780;7.726;2023-03-01T07:09:19;-3.70;99.90
11824;DHT22;5969;50.780;7.726;2023-03-01T07:11:47;-3.70;99.90
11824;DHT22;5969;50.780;7.726;2023-03-01T07:14:14;-3.80;99.90
11824;DHT22;5969;50.780;7.726;2023-03-01T07:16:40;-3.70;99.90
11824;DHT22;5969;50.780;7.726;2023-03-01T07:19:07;-3.50;99.90
11824;DHT22;5969;50.780;7.726;2023-03-01T07:21:36;-3.40;99.90
11824;DHT22;5969;50.780;7.726;2023-03-01T07:24:04;-3.40;99.90
11824;DHT22;5969;50.780;7.726;2023-03-01T07:26:31;-3.20;99.90
11824;DHT22;5969;50.780;7.726;2023-03-01T07:28:59;-3.10;99.90
11824;DHT22;5969;50.780;7.726;2023-03-01T07:31:26;-3.20;99.90
11824;DHT22;5969;50.780;7.726;2023-03-01T07:33:53;-3.20;99.90
11824;DHT22;5969;50.780;7.726;2023-03-01T07:36:20;-3.10;99.90
11824;DHT22;5969;50.780;7.726;2023-03-01T07:38:48;-3.00;99.90
11824;DHT22;5969;50.780;7.726;2023-03-01T07:41:15;-3.10;99.90
11824;DHT22;5969;50.780;7.726;2023-03-01T07:43:42;-3.00;99.90
11824;DHT22;5969;50.780;7.726;2023-03-01T07:46:09;-2.90;99.90
11824;DHT22;5969;50.780;7.726;2023-03-01T07:48:35;-2.90;99.90
11824;DHT22;5969;50.780;7.726;2023-03-01T07:51:04;-2.90;99.90
11824;DHT22;5969;50.780;7.726;2023-03-01T07:53:32;-2.80;99.90
11824;DHT22;5969;50.780;7.726;2023-03-01T07:56:05;-2.90;99.90
11824;DHT22;5969;50.780;7.726;2023-03-01T07:58:34;-2.90;99.90
11824;DHT22;5969;50.780;7.726;2023-03-01T08:01:02;-2.60;99.90
11824;DHT22;5969;50.780;7.726;2023-03-01T08:03:29;-2.40;99.90
11824;DHT22;5969;50.780;7.726;2023-03-01T08:05:55;-2.20;99.90
11824;DHT22;5969;50.780;7.726;2023-03-01T08:08:22;-2.00;99.90
11824;DHT22;5969;50.780;7.726;2023-03-01T08:10:49;-1.80;99.90
11824;DHT22;5969;50.780;7.726;2023-03-01T08:13:17;-1.70;99.90
11824;DHT22;5969;50.780;7.726;2023-03-01T08:15:47;-1.50;99.90
11824;DHT22;5969;50.780;7.726;2023-03-01T08:18:14;-1.40;99.90
11824;DHT22;5969;50.780;7.726;2023-03-01T08:20:41;-1.30;99.90
11824;DHT22;5969;50.780;7.726;2023-03-01T08:23:08;-1.20;99.90
11824;DHT22;5969;50.780;7.726;2023-03-01T08:25:34;-1.10;99.90
11824;DHT22;5969;50.780;7.726;2023-03-01T08:28:01;-1.00;99.90
11824;DHT22;5969;50.780;7.726;2023-03-01T08:30:29;-1.00;99.90
11824;DHT22;5969;50.780;7.726;2023-03-01T08:32:56;-0.90;99.90
11824;DHT22;5969;50.780;7.726;2023-03-01T08:35:23;-0.80;99.90
11824;DHT22;5969;50.780;7.726;2023-03-01T08:37:50;-0.60;99.90
11824;DHT22;5969;50.780;7.726;2023-03-01T08:40:17;-0.60;99.90
11824;DHT22;5969;50.780;7.726;2023-03-01T08:42:43;-0.40;99.90
11824;DHT22;5969;50.780;7.726;2023-03-01T08:45:11;-0.30;99.90
11824;DHT22;5969;50.780;7.726;2023-03-01T08:47:39;-0.10;99.90
11824;DHT22;5969;50.780;7.726;2023-03-01T08:50:07;0.00;99.90
11824;DHT22;5969;50.780;7.726;2023-03-01T08:52:34;0.10;99.90
11824;DHT22;5969;50.780;7.726;2023-03-01T08:55:00;0.30;99.90
11824;DHT22;5969;50.780;7.726;2023-03-01T08:57:27;0.40;99.90
11824;DHT22;5969;50.780;7.726;2023-03-01T08:59:54;0.50;99.90
11824;DHT22;5969;50.780;7.726;2023-03-01T09:02:22;0.60;99.90
11824;DHT22;5969;50.780;7.726;2023-03-01T09:04:50;0.70;99.90
11824;DHT22;5969;50.780;7.726;2023-03-01T09:07:16;0.80;99.90
11824;DHT22;5969;50.780;7.726;2023-03-01T09:09:43;0.90;99.90
11824;DHT22;5969;50.780;7.726;2023-03-01T09:12:10;1.00;99.90
11824;DHT22;5969;50.780;7.726;2023-03-01T09:14:37;1.10;99.90
11824;DHT22;5969;50.780;7.726;2023-03-01T09:17:04;1.30;99.90
11824;DHT22;5969;50.780;7.726;2023-03-01T09:19:31;1.40;99.90
11824;DHT22;5969;50.780;7.726;2023-03-01T09:21:59;1.50;99.90
11824;DHT22;5969;50.780;7.726;2023-03-01T09:24:25;1.60;99.90
11824;DHT22;5969;50.780;7.726;2023-03-01T09:26:56;1.80;99.90
11824;DHT22;5969;50.780;7.726;2023-03-01T09:29:23;2.00;99.90
11824;DHT22;5969;50.780;7.726;2023-03-01T09:31:51;2.10;99.90
11824;DHT22;5969;50.780;7.726;2023-03-01T09:34:20;2.20;99.90
11824;DHT22;5969;50.780;7.726;2023-03-01T09:36:49;2.40;99.90
11824;DHT22;5969;50.780;7.726;2023-03-01T09:39:18;2.50;99.90
11824;DHT22;5969;50.780;7.726;2023-03-01T09:41:49;2.60;99.90
11824;DHT22;5969;50.780;7.726;2023-03-01T09:44:23;2.70;99.90
11824;DHT22;5969;50.780;7.726;2023-03-01T09:46:52;2.80;99.90
11824;DHT22;5969;50.780;7.726;2023-03-01T09:49:21;2.90;99.90
11824;DHT22;5969;50.780;7.726;2023-03-01T09:51:55;3.10;99.90
11824;DHT22;5969;50.780;7.726;2023-03-01T09:54:24;3.20;99.90
11824;DHT22;5969;50.780;7.726;2023-03-01T09:57:03;3.30;99.90
11824;DHT22;5969;50.780;7.726;2023-03-01T09:59:38;3.40;99.90
11824;DHT22;5969;50.780;7.726;2023-03-01T10:02:21;3.50;99.90
11824;DHT22;5969;50.780;7.726;2023-03-01T10:04:51;3.60;99.90
11824;DHT22;5969;50.780;7.726;2023-03-01T10:07:27;3.70;99.90
11824;DHT22;5969;50.780;7.726;2023-03-01T10:09:58;3.80;99.90
11824;DHT22;5969;50.780;7.726;2023-03-01T10:12:27;3.90;99.90
11824;DHT22;5969;50.780;7.726;2023-03-01T10:15:02;4.00;99.90
11824;DHT22;5969;50.780;7.726;2023-03-01T10:17:34;4.10;99.90
11824;DHT22;5969;50.780;7.726;2023-03-01T10:20:18;4.10;99.90
11824;DHT22;5969;50.780;7.726;2023-03-01T10:22:46;4.20;99.90
11824;DHT22;5969;50.780;7.726;2023-03-01T10:25:21;4.30;99.90
11824;DHT22;5969;50.780;7.726;2023-03-01T10:27:52;4.40;99.90
11824;DHT22;5969;50.780;7.726;2023-03-01T10:30:22;4.50;99.90
11824;DHT22;5969;50.780;7.726;2023-03-01T10:32:51;4.60;99.90
11824;DHT22;5969;50.780;7.726;2023-03-01T10:35:22;4.80;99.90
11824;DHT22;5969;50.780;7.726;2023-03-01T10:38:03;4.80;99.90
11824;DHT22;5969;50.780;7.726;2023-03-01T10:40:32;5.00;99.90
11824;DHT22;5969;50.780;7.726;2023-03-01T10:43:01;5.10;99.90
11824;DHT22;5969;50.780;7.726;2023-03-01T10:45:34;5.20;99.90
11824;DHT22;5969;50.780;7.726;2023-03-01T10:48:10;5.30;99.90
11824;DHT22;5969;50.780;7.726;2023-03-01T10:50:38;5.50;99.90
11824;DHT22;5969;50.780;7.726;2023-03-01T10:53:24;5.60;99.90
11824;DHT22;5969;50.780;7.726;2023-03-01T10:56:04;5.80;99.90
11824;DHT22;5969;50.780;7.726;2023-03-01T10:58:32;5.90;99.30
11824;DHT22;5969;50.780;7.726;2023-03-01T11:01:05;6.00;99.50
11824;DHT22;5969;50.780;7.726;2023-03-01T11:03:34;6.30;98.40
11824;DHT22;5969;50.780;7.726;2023-03-01T11:06:05;6.40;98.90
11824;DHT22;5969;50.780;7.726;2023-03-01T11:08:43;6.60;97.90
11824;DHT22;5969;50.780;7.726;2023-03-01T11:11:26;6.60;97.60
11824;DHT22;5969;50.780;7.726;2023-03-01T11:13:58;6.80;97.00
11824;DHT22;5969;50.780;7.726;2023-03-01T11:16:29;6.90;96.30
11824;DHT22;5969;50.780;7.726;2023-03-01T11:18:57;7.10;96.50
11824;DHT22;5969;50.780;7.726;2023-03-01T11:21:25;7.30;96.00
11824;DHT22;5969;50.780;7.726;2023-03-01T11:23:54;7.50;95.80
11824;DHT22;5969;50.780;7.726;2023-03-01T11:26:22;7.70;95.50
11824;DHT22;5969;50.780;7.726;2023-03-01T11:28:53;7.90;95.00
11824;DHT22;5969;50.780;7.726;2023-03-01T11:31:23;8.60;97.60
11824;DHT22;5969;50.780;7.726;2023-03-01T11:33:55;11.80;98.50
11824;DHT22;5969;50.780;7.726;2023-03-01T11:36:28;15.40;89.40
11824;DHT22;5969;50.780;7.726;2023-03-01T11:38:57;18.10;76.90
11824;DHT22;5969;50.780;7.726;2023-03-01T11:41:31;20.60;67.60
11824;DHT22;5969;50.780;7.726;2023-03-01T11:44:02;22.60;62.50
11824;DHT22;5969;50.780;7.726;2023-03-01T11:46:40;24.30;56.20
11824;DHT22;5969;50.780;7.726;2023-03-01T11:52:20;26.60;48.40
11824;DHT22;5969;50.780;7.726;2023-03-01T11:54:59;27.70;47.60
11824;DHT22;5969;50.780;7.726;2023-03-01T11:57:51;28.60;46.70
11824;DHT22;5969;50.780;7.726;2023-03-01T12:00:37;29.30;45.40
11824;DHT22;5969;50.780;7.726;2023-03-01T12:03:29;30.40;42.90
11824;DHT22;5969;50.780;7.726;2023-03-01T12:06:15;31.10;42.00
11824;DHT22;5969;50.780;7.726;2023-03-01T12:08:55;31.00;38.50
11824;DHT22;5969;50.780;7.726;2023-03-01T12:11:35;31.10;41.20
11824;DHT22;5969;50.780;7.726;2023-03-01T12:14:36;32.00;40.30
11824;DHT22;5969;50.780;7.726;2023-03-01T12:17:30;31.90;39.90
11824;DHT22;5969;50.780;7.726;2023-03-01T12:20:15;32.30;38.00
11824;DHT22;5969;50.780;7.726;2023-03-01T12:23:02;31.60;38.90
11824;DHT22;5969;50.780;7.726;2023-03-01T12:25:35;33.00;37.90
11824;DHT22;5969;50.780;7.726;2023-03-01T12:28:20;34.00;35.50
11824;DHT22;5969;50.780;7.726;2023-03-01T12:31:05;32.80;37.30
11824;DHT22;5969;50.780;7.726;2023-03-01T12:33:41;32.60;37.40
11824;DHT22;5969;50.780;7.726;2023-03-01T12:36:24;33.40;35.30
11824;DHT22;5969;50.780;7.726;2023-03-01T12:38:59;32.60;34.70
11824;DHT22;5969;50.780;7.726;2023-03-01T12:41:43;31.20;37.00
11824;DHT22;5969;50.780;7.726;2023-03-01T12:44:24;32.90;36.30
11824;DHT22;5969;50.780;7.726;2023-03-01T12:47:11;33.70;34.90
11824;DHT22;5969;50.780;7.726;2023-03-01T12:49:44;34.20;33.30
11824;DHT22;5969;50.780;7.726;2023-03-01T12:52:16;34.50;32.80
11824;DHT22;5969;50.780;7.726;2023-03-01T12:54:44;34.40;32.20
11824;DHT22;5969;50.780;7.726;2023-03-01T12:57:15;34.70;33.10
11824;DHT22;5969;50.780;7.726;2023-03-01T12:59:51;35.10;31.60
11824;DHT22;5969;50.780;7.726;2023-03-01T13:02:30;35.00;32.90
11824;DHT22;5969;50.780;7.726;2023-03-01T13:05:06;34.80;33.30
11824;DHT22;5969;50.780;7.726;2023-03-01T13:07:43;35.00;31.30
11824;DHT22;5969;50.780;7.726;2023-03-01T13:10:21;35.40;32.30
11824;DHT22;5969;50.780;7.726;2023-03-01T13:13:00;35.10;32.30
11824;DHT22;5969;50.780;7.726;2023-03-01T13:15:30;35.40;31.70
11824;DHT22;5969;50.780;7.726;2023-03-01T13:18:00;35.90;31.80
11824;DHT22;5969;50.780;7.726;2023-03-01T13:20:30;35.50;31.80
11824;DHT22;5969;50.780;7.726;2023-03-01T13:23:04;36.10;31.30
11824;DHT22;5969;50.780;7.726;2023-03-01T13:25:32;36.80;31.00
11824;DHT22;5969;50.780;7.726;2023-03-01T13:31:03;36.90;31.30
11824;DHT22;5969;50.780;7.726;2023-03-01T13:33:50;36.20;31.10
11824;DHT22;5969;50.780;7.726;2023-03-01T13:36:45;33.40;30.20
11824;DHT22;5969;50.780;7.726;2023-03-01T13:39:27;28.80;33.40
11824;DHT22;5969;50.780;7.726;2023-03-01T13:41:56;25.40;35.80
11824;DHT22;5969;50.780;7.726;2023-03-01T13:44:28;23.20;37.00
11824;DHT22;5969;50.780;7.726;2023-03-01T13:46:58;21.70;39.50
11824;DHT22;5969;50.780;7.726;2023-03-01T13:49:28;22.20;40.10
11824;DHT22;5969;50.780;7.726;2023-03-01T13:51:57;26.70;37.30
11824;DHT22;5969;50.780;7.726;2023-03-01T13:54:28;30.10;34.90
11824;DHT22;5969;50.780;7.726;2023-03-01T13:56:56;32.50;33.30
11824;DHT22;5969;50.780;7.726;2023-03-01T13:59:24;33.80;32.80
11824;DHT22;5969;50.780;7.726;2023-03-01T14:01:56;35.00;31.40
11824;DHT22;5969;50.780;7.726;2023-03-01T14:04:25;35.50;30.70
11824;DHT22;5969;50.780;7.726;2023-03-01T14:07:09;35.70;30.40
11824;DHT22;5969;50.780;7.726;2023-03-01T14:09:39;36.30;29.90
11824;DHT22;5969;50.780;7.726;2023-03-01T14:12:18;36.20;30.10
11824;DHT22;5969;50.780;7.726;2023-03-01T14:14:55;36.30;30.60
11824;DHT22;5969;50.780;7.726;2023-03-01T14:17:42;36.30;28.60
11824;DHT22;5969;50.780;7.726;2023-03-01T14:20:14;35.90;30.00
11824;DHT22;5969;50.780;7.726;2023-03-01T14:22:44;36.70;29.70
11824;DHT22;5969;50.780;7.726;2023-03-01T14:25:24;37.30;30.00
11824;DHT22;5969;50.780;7.726;2023-03-01T14:27:56;37.30;29.70
11824;DHT22;5969;50.780;7.726;2023-03-01T14:30:25;36.90;29.70
11824;DHT22;5969;50.780;7.726;2023-03-01T14:32:54;37.00;29.40
11824;DHT22;5969;50.780;7.726;2023-03-01T14:35:23;37.20;28.80
11824;DHT22;5969;50.780;7.726;2023-03-01T14:37:51;37.50;29.40
11824;DHT22;5969;50.780;7.726;2023-03-01T14:40:24;37.20;28.80
11824;DHT22;5969;50.780;7.726;2023-03-01T14:42:51;37.20;29.40
11824;DHT22;5969;50.780;7.726;2023-03-01T14:45:19;37.80;29.10
11824;DHT22;5969;50.780;7.726;2023-03-01T14:47:46;37.00;29.20
11824;DHT22;5969;50.780;7.726;2023-03-01T14:50:24;37.50;28.60
11824;DHT22;5969;50.780;7.726;2023-03-01T14:52:55;36.90;29.20
11824;DHT22;5969;50.780;7.726;2023-03-01T14:55:26;36.60;27.80
11824;DHT22;5969;50.780;7.726;2023-03-01T14:57:56;36.20;29.10
11824;DHT22;5969;50.780;7.726;2023-03-01T15:00:26;35.70;29.00
11824;DHT22;5969;50.780;7.726;2023-03-01T15:02:54;35.90;28.80
11824;DHT22;5969;50.780;7.726;2023-03-01T15:05:27;35.50;29.70
11824;DHT22;5969;50.780;7.726;2023-03-01T15:07:58;35.60;29.20
11824;DHT22;5969;50.780;7.726;2023-03-01T15:10:27;35.80;29.00
11824;DHT22;5969;50.780;7.726;2023-03-01T15:12:55;36.00;29.10
11824;DHT22;5969;50.780;7.726;2023-03-01T15:15:35;35.90;28.90
11824;DHT22;5969;50.780;7.726;2023-03-01T15:18:04;35.50;29.00
11824;DHT22;5969;50.780;7.726;2023-03-01T15:20:33;34.80;29.90
11824;DHT22;5969;50.780;7.726;2023-03-01T15:23:03;34.80;29.90
11824;DHT22;5969;50.780;7.726;2023-03-01T15:25:32;34.40;29.60
11824;DHT22;5969;50.780;7.726;2023-03-01T15:28:01;34.10;30.00
11824;DHT22;5969;50.780;7.726;2023-03-01T15:30:31;33.80;30.20
11824;DHT22;5969;50.780;7.726;2023-03-01T15:36:00;32.60;31.40
11824;DHT22;5969;50.780;7.726;2023-03-01T15:38:32;32.90;30.60
11824;DHT22;5969;50.780;7.726;2023-03-01T15:41:01;32.80;30.20
11824;DHT22;5969;50.780;7.726;2023-03-01T15:43:40;32.60;30.80
11824;DHT22;5969;50.780;7.726;2023-03-01T15:46:17;31.00;32.80
11824;DHT22;5969;50.780;7.726;2023-03-01T15:48:45;31.60;31.40
11824;DHT22;5969;50.780;7.726;2023-03-01T15:51:13;31.50;31.80
11824;DHT22;5969;50.780;7.726;2023-03-01T15:53:43;31.90;31.60
11824;DHT22;5969;50.780;7.726;2023-03-01T15:56:14;31.70;31.50
11824;DHT22;5969;50.780;7.726;2023-03-01T15:58:41;30.80;30.60
11824;DHT22;5969;50.780;7.726;2023-03-01T16:01:11;30.30;32.50
11824;DHT22;5969;50.780;7.726;2023-03-01T16:03:39;30.10;32.10
11824;DHT22;5969;50.780;7.726;2023-03-01T16:06:07;29.60;31.80
11824;DHT22;5969;50.780;7.726;2023-03-01T16:08:34;28.70;33.90
11824;DHT22;5969;50.780;7.726;2023-03-01T16:11:04;29.00;33.10
11824;DHT22;5969;50.780;7.726;2023-03-01T16:13:32;29.00;33.40
11824;DHT22;5969;50.780;7.726;2023-03-01T16:15:59;27.80;34.40
11824;DHT22;5969;50.780;7.726;2023-03-01T16:18:27;27.40;32.00